createdAt,value
2023-05-15T00:01:27.190Z,7.40
2023-05-15T00:03:55.113Z,7.43
2023-05-15T00:06:22.195Z,8.23
2023-05-15T00:08:48.663Z,7.50
2023-05-15T00:11:15.430Z,6.55
2023-05-15T00:13:42.325Z,7.47
2023-05-15T00:16:09.721Z,7.72
2023-05-15T00:18:36.646Z,8.10
2023-05-15T00:21:05.202Z,7.90
2023-05-15T00:23:32.583Z,8.55
2023-05-15T00:26:01.483Z,7.85
2023-05-15T00:28:27.956Z,7.53
2023-05-15T00:30:54.604Z,7.80
2023-05-15T00:33:21.360Z,8.20
2023-05-15T00:36:44.838Z,8.50
2023-05-15T00:39:11.880Z,7.68
2023-05-15T00:42:10.149Z,7.97
2023-05-15T00:48:17.644Z,7.43
2023-05-15T00:51:02.524Z,8.30
2023-05-15T00:53:39.236Z,8.35
2023-05-15T00:56:09.509Z,9.02
2023-05-15T00:58:38.052Z,9.25
2023-05-15T01:01:08.093Z,8.57
2023-05-15T01:03:36.072Z,8.70
2023-05-15T01:06:04.273Z,9.50
2023-05-15T01:08:52.055Z,9.18
2023-05-15T01:11:18.818Z,8.10
2023-05-15T01:13:45.670Z,8.77
2023-05-15T01:16:13.002Z,9.75
2023-05-15T01:18:39.668Z,9.85
2023-05-15T01:21:06.424Z,10.02
2023-05-15T01:23:46.461Z,9.52
2023-05-15T01:26:41.721Z,10.13
2023-05-15T01:29:18.660Z,10.25
2023-05-15T01:31:59.075Z,10.57
2023-05-15T01:34:47.390Z,9.75
2023-05-15T01:37:18.412Z,10.77
2023-05-15T01:39:49.713Z,10.27
2023-05-15T01:42:19.639Z,10.90
2023-05-15T01:44:55.513Z,11.10
2023-05-15T01:47:28.190Z,10.35
2023-05-15T01:49:57.775Z,11.63
2023-05-15T01:52:32.831Z,11.10
2023-05-15T01:55:01.495Z,10.90
2023-05-15T01:57:29.809Z,11.55
2023-05-15T01:59:58.800Z,10.63
2023-05-15T02:02:27.719Z,10.00
2023-05-15T02:04:55.004Z,11.07
2023-05-15T02:07:22.208Z,10.93
2023-05-15T02:09:52.792Z,10.77
2023-05-15T02:12:21.657Z,11.02
2023-05-15T02:14:49.893Z,11.25
2023-05-15T02:17:19.029Z,11.10
2023-05-15T02:19:45.689Z,12.10
2023-05-15T02:22:12.572Z,12.60
2023-05-15T02:24:39.713Z,12.77
2023-05-15T02:27:24.209Z,13.00
2023-05-15T02:30:11.502Z,12.97
2023-05-15T02:32:54.489Z,12.70
2023-05-15T02:35:44.283Z,12.50
2023-05-15T02:38:17.203Z,12.23
2023-05-15T02:40:46.477Z,13.27
2023-05-15T02:43:17.912Z,13.37
2023-05-15T02:45:47.279Z,12.60
2023-05-15T02:48:15.556Z,13.25
2023-05-15T02:50:42.464Z,13.70
2023-05-15T02:53:14.855Z,14.05
2023-05-15T02:55:41.425Z,14.50
2023-05-15T02:58:08.417Z,13.57
2023-05-15T03:00:35.208Z,13.70
2023-05-15T03:03:03.604Z,13.13
2023-05-15T03:05:30.115Z,13.93
2023-05-15T03:07:57.715Z,14.03
2023-05-15T03:10:24.487Z,13.15
2023-05-15T03:12:51.125Z,15.00
2023-05-15T03:15:18.345Z,14.30
2023-05-15T03:17:45.954Z,15.85
2023-05-15T03:20:14.425Z,14.23
2023-05-15T03:22:41.653Z,14.20
2023-05-15T03:25:11.492Z,15.02
2023-05-15T03:27:38.749Z,15.85
2023-05-15T03:30:06.200Z,15.15
2023-05-15T03:32:32.884Z,14.57
2023-05-15T03:35:03.664Z,14.35
2023-05-15T03:37:30.312Z,15.00
2023-05-15T03:39:58.935Z,14.98
2023-05-15T03:42:25.924Z,14.90
2023-05-15T03:44:52.653Z,14.03
2023-05-15T03:47:22.086Z,14.65
2023-05-15T03:49:49.482Z,15.07
2023-05-15T03:52:16.211Z,14.82
2023-05-15T03:54:43.001Z,14.73
2023-05-15T03:57:09.675Z,14.63
2023-05-15T03:59:36.207Z,14.45
2023-05-15T04:02:05.271Z,14.75
2023-05-15T04:04:32.372Z,14.85
2023-05-15T04:07:00.355Z,12.73
2023-05-15T04:09:27.122Z,12.87
2023-05-15T04:11:53.634Z,12.57
2023-05-15T04:14:20.141Z,12.98
2023-05-15T04:16:46.763Z,12.07
2023-05-15T04:19:15.506Z,12.02
2023-05-15T04:21:42.276Z,12.10
2023-05-15T04:24:09.052Z,12.00
2023-05-15T04:26:36.594Z,12.73
2023-05-15T04:29:04.715Z,10.57
2023-05-15T04:31:32.410Z,11.63
2023-05-15T04:34:01.226Z,10.37
2023-05-15T04:36:28.212Z,12.00
2023-05-15T04:38:54.946Z,11.23
2023-05-15T04:41:21.517Z,12.40
2023-05-15T04:43:47.991Z,12.05
2023-05-15T04:46:15.333Z,10.63
2023-05-15T04:48:42.086Z,12.35
2023-05-15T04:51:12.841Z,12.23
2023-05-15T04:53:46.751Z,12.85
2023-05-15T04:56:13.674Z,12.45
2023-05-15T04:58:40.707Z,11.90
2023-05-15T05:01:08.119Z,11.82
2023-05-15T05:03:34.696Z,12.90
2023-05-15T05:06:01.366Z,13.73
2023-05-15T05:08:28.654Z,13.00
2023-05-15T05:10:57.413Z,13.37
2023-05-15T05:13:24.155Z,12.27
2023-05-15T05:15:51.983Z,12.15
2023-05-15T05:18:18.592Z,11.85
2023-05-15T05:20:45.335Z,12.13
2023-05-15T05:23:14.866Z,11.60
2023-05-15T05:25:41.585Z,12.00
2023-05-15T05:28:08.321Z,11.77
2023-05-15T05:30:35.157Z,11.50
2023-05-15T05:33:01.829Z,11.40
2023-05-15T05:35:28.660Z,11.47
2023-05-15T05:37:55.478Z,9.77
2023-05-15T05:40:22.202Z,11.13
2023-05-15T05:42:50.906Z,10.85
2023-05-15T05:45:19.053Z,9.70
2023-05-15T05:47:48.345Z,10.03
2023-05-15T05:50:15.450Z,9.90
2023-05-15T05:52:42.722Z,10.88
2023-05-15T05:55:10.829Z,8.88
2023-05-15T05:57:37.803Z,10.48
2023-05-15T06:00:08.896Z,9.87
2023-05-15T06:02:38.528Z,9.63
2023-05-15T06:05:08.659Z,10.25
2023-05-15T06:07:35.708Z,10.20
2023-05-15T06:10:05.301Z,10.77
2023-05-15T06:12:32.045Z,10.20
2023-05-15T06:14:59.001Z,11.13
2023-05-15T06:17:31.846Z,11.88
2023-05-15T06:20:01.231Z,10.30
2023-05-15T06:22:28.223Z,11.25
2023-05-15T06:24:54.812Z,10.77
2023-05-15T06:27:21.609Z,11.13
2023-05-15T06:29:48.776Z,11.75
2023-05-15T06:32:15.816Z,10.38
2023-05-15T06:34:42.581Z,11.55
2023-05-15T06:37:11.637Z,11.07
2023-05-15T06:39:38.500Z,10.10
2023-05-15T06:42:05.802Z,10.52
2023-05-15T06:44:32.591Z,10.57
2023-05-15T06:46:59.191Z,9.95
2023-05-15T06:49:26.445Z,10.97
2023-05-15T06:51:53.355Z,10.43
2023-05-15T06:54:20.866Z,11.50
2023-05-15T06:56:47.643Z,10.93
2023-05-15T06:59:16.720Z,10.93
2023-05-15T07:01:43.737Z,10.57
2023-05-15T07:04:12.871Z,10.80
2023-05-15T07:06:39.512Z,10.25
2023-05-15T07:09:06.318Z,10.15
2023-05-15T07:11:43.394Z,10.38
2023-05-15T07:14:10.197Z,9.30
2023-05-15T07:16:37.221Z,9.57
2023-05-15T07:19:04.040Z,9.73
2023-05-15T07:21:31.178Z,9.90
2023-05-15T07:23:57.830Z,9.82
2023-05-15T07:26:32.873Z,9.77
2023-05-15T07:29:06.203Z,9.57
2023-05-15T07:31:33.659Z,9.75
2023-05-15T07:34:00.409Z,10.25
2023-05-15T07:36:30.460Z,9.57
2023-05-15T07:38:57.463Z,9.93
2023-05-15T07:41:26.301Z,11.38
2023-05-15T07:43:52.988Z,9.73
2023-05-15T07:46:22.279Z,9.88
2023-05-15T07:48:49.191Z,10.50
2023-05-15T07:51:15.915Z,9.00
2023-05-15T07:53:43.592Z,10.20
2023-05-15T07:56:11.157Z,10.00
2023-05-15T07:58:39.053Z,9.07
2023-05-15T08:01:06.222Z,10.90
2023-05-15T08:03:34.409Z,10.50
2023-05-15T08:06:00.993Z,10.88
2023-05-15T08:11:48.144Z,8.88
2023-05-15T08:14:16.500Z,9.25
2023-05-15T08:16:43.378Z,9.87
2023-05-15T08:19:13.150Z,9.32
2023-05-15T08:21:40.979Z,8.98
2023-05-15T08:24:07.660Z,7.93
2023-05-15T08:26:34.307Z,7.40
2023-05-15T08:29:02.198Z,8.83
2023-05-15T08:31:30.166Z,9.20
2023-05-15T08:33:57.424Z,8.98
2023-05-15T08:36:24.240Z,9.02
2023-05-15T08:38:51.618Z,8.68
2023-05-15T08:41:40.139Z,9.10
2023-05-15T08:44:11.343Z,8.43
2023-05-15T08:46:39.085Z,9.70
2023-05-15T08:49:23.141Z,8.63
2023-05-15T08:51:53.756Z,9.02
2023-05-15T08:54:23.118Z,9.73
2023-05-15T08:56:53.851Z,8.27
2023-05-15T08:59:21.401Z,9.07
2023-05-15T09:01:51.050Z,9.73
2023-05-15T09:04:19.673Z,8.88
2023-05-15T09:06:54.376Z,9.00
2023-05-15T09:09:21.820Z,8.05
2023-05-15T09:11:49.153Z,9.48
2023-05-15T09:14:20.802Z,8.90
2023-05-15T09:16:51.208Z,8.30
2023-05-15T09:19:28.070Z,9.50
2023-05-15T09:21:55.782Z,8.50
2023-05-15T09:24:26.722Z,9.23
2023-05-15T09:27:14.178Z,8.07
2023-05-15T09:29:41.992Z,9.00
2023-05-15T09:32:15.280Z,8.03
2023-05-15T09:34:44.872Z,6.80
2023-05-15T09:37:32.371Z,7.93
2023-05-15T09:40:09.694Z,8.60
2023-05-15T09:42:37.525Z,8.45
2023-05-15T09:45:06.865Z,9.13
2023-05-15T09:47:34.906Z,9.02
2023-05-15T09:50:01.936Z,9.07
2023-05-15T09:52:29.379Z,8.98
2023-05-15T09:54:57.220Z,9.48
2023-05-15T09:57:24.333Z,8.93
2023-05-15T09:59:52.481Z,9.55
2023-05-15T10:02:35.036Z,9.20
2023-05-15T10:05:01.984Z,11.05
2023-05-15T10:07:32.781Z,11.13
2023-05-15T10:10:01.707Z,12.27
2023-05-15T10:12:31.972Z,13.55
2023-05-15T10:15:00.794Z,12.75
2023-05-15T10:17:35.031Z,15.32
2023-05-15T10:20:02.527Z,13.15
2023-05-15T10:22:31.019Z,14.03
2023-05-15T10:25:09.064Z,14.93
2023-05-15T10:27:38.368Z,15.40
2023-05-15T10:30:08.011Z,15.35
2023-05-15T10:32:35.477Z,15.13
2023-05-15T10:35:03.679Z,16.73
2023-05-15T10:37:31.941Z,17.23
2023-05-15T10:39:59.245Z,17.92
2023-05-15T10:42:28.355Z,16.73
2023-05-15T10:45:00.399Z,18.23
2023-05-15T10:47:27.936Z,17.27
2023-05-15T10:49:56.179Z,18.92
2023-05-15T10:52:25.955Z,18.17
2023-05-15T10:54:53.839Z,17.83
2023-05-15T10:57:23.603Z,18.00
2023-05-15T10:59:51.656Z,16.97
2023-05-15T11:02:28.916Z,18.73
2023-05-15T11:05:03.980Z,16.85
2023-05-15T11:07:30.748Z,15.75
2023-05-15T11:09:57.620Z,15.23
2023-05-15T11:12:25.620Z,14.90
2023-05-15T11:14:52.142Z,14.52
2023-05-15T11:17:18.792Z,14.02
2023-05-15T11:19:51.711Z,13.65
2023-05-15T11:22:22.288Z,12.88
2023-05-15T11:24:57.860Z,12.20
2023-05-15T11:27:42.320Z,12.20
2023-05-15T11:30:15.084Z,11.98
2023-05-15T11:32:47.482Z,11.60
2023-05-15T11:35:43.610Z,11.15
2023-05-15T11:38:15.331Z,10.83
2023-05-15T11:40:48.286Z,10.50
2023-05-15T11:43:23.917Z,10.35
2023-05-15T11:45:56.382Z,11.23
2023-05-15T11:48:29.969Z,10.98
2023-05-15T11:50:56.843Z,10.20
2023-05-15T11:53:24.663Z,10.77
2023-05-15T11:55:53.905Z,11.43
2023-05-15T11:58:23.314Z,10.95
2023-05-15T12:00:53.048Z,9.30
2023-05-15T12:03:36.121Z,8.77
2023-05-15T12:06:03.513Z,8.30
2023-05-15T12:08:38.842Z,9.82
2023-05-15T12:11:07.744Z,9.45
2023-05-15T12:13:36.325Z,11.48
2023-05-15T12:16:04.269Z,9.83
2023-05-15T12:18:34.895Z,10.30
2023-05-15T12:21:02.076Z,9.10
2023-05-15T12:23:28.925Z,10.02
2023-05-15T12:26:01.173Z,9.05
2023-05-15T12:28:29.781Z,9.13
2023-05-15T12:30:56.961Z,8.98
2023-05-15T12:33:27.794Z,9.10
2023-05-15T12:36:00.856Z,8.98
2023-05-15T12:38:30.825Z,9.02
2023-05-15T12:41:01.766Z,7.63
2023-05-15T12:43:28.607Z,8.60
2023-05-15T12:45:58.874Z,7.88
2023-05-15T12:48:33.416Z,6.97
2023-05-15T12:51:10.960Z,7.28
2023-05-15T12:53:40.418Z,7.40
2023-05-15T12:56:09.104Z,6.88
2023-05-15T12:58:37.375Z,7.22
2023-05-15T13:01:04.097Z,6.40
2023-05-15T13:03:32.081Z,6.05
2023-05-15T13:05:59.073Z,5.13
2023-05-15T13:08:25.693Z,5.70
2023-05-15T13:11:00.200Z,5.55
2023-05-15T13:13:51.917Z,5.38
2023-05-15T13:16:31.328Z,4.50
2023-05-15T13:19:05.727Z,5.20
2023-05-15T13:21:32.372Z,5.28
2023-05-15T13:24:00.020Z,5.30
2023-05-15T13:26:26.836Z,5.60
2023-05-15T13:28:56.928Z,5.07
2023-05-15T13:31:24.188Z,5.70
2023-05-15T13:33:50.946Z,5.15
2023-05-15T13:36:17.787Z,4.60
2023-05-15T13:38:44.739Z,4.10
2023-05-15T13:41:11.297Z,5.60
2023-05-15T13:43:37.932Z,5.80
2023-05-15T13:46:04.984Z,5.78
2023-05-15T13:48:32.471Z,5.78
2023-05-15T13:51:01.149Z,5.90
2023-05-15T13:53:27.905Z,6.13
2023-05-15T13:55:55.083Z,6.23
2023-05-15T13:58:21.639Z,6.43
2023-05-15T14:00:49.711Z,7.10
2023-05-15T14:03:16.348Z,6.32
2023-05-15T14:05:42.911Z,6.88
2023-05-15T14:08:09.757Z,7.30
2023-05-15T14:10:38.670Z,6.25
2023-05-15T14:13:05.555Z,6.57
2023-05-15T14:15:35.081Z,6.50
2023-05-15T14:18:01.750Z,6.18
2023-05-15T14:20:29.061Z,6.17
2023-05-15T14:22:56.405Z,5.03
2023-05-15T14:25:24.819Z,5.07
2023-05-15T14:27:51.682Z,4.80
2023-05-15T14:30:19.907Z,3.30
2023-05-15T14:32:46.837Z,4.30
2023-05-15T14:35:15.861Z,4.15
2023-05-15T14:37:43.295Z,4.10
2023-05-15T14:40:11.530Z,4.25
2023-05-15T14:42:40.880Z,3.70
2023-05-15T14:45:08.150Z,3.07
2023-05-15T14:47:34.817Z,4.20
2023-05-15T14:50:01.337Z,4.40
2023-05-15T14:52:29.429Z,4.07
2023-05-15T14:55:08.457Z,5.28
2023-05-15T14:57:37.146Z,5.13
2023-05-15T15:00:06.608Z,3.40
2023-05-15T15:02:33.676Z,3.08
2023-05-15T15:05:00.748Z,3.90
2023-05-15T15:07:30.442Z,4.10
2023-05-15T15:09:56.991Z,3.53
2023-05-15T15:12:23.936Z,4.22
2023-05-15T15:14:52.236Z,4.18
2023-05-15T15:17:18.992Z,4.07
2023-05-15T15:19:45.734Z,4.30
2023-05-15T15:22:14.383Z,3.97
2023-05-15T15:24:40.907Z,3.42
2023-05-15T15:27:07.951Z,3.60
2023-05-15T15:29:34.718Z,3.38
2023-05-15T15:32:01.175Z,3.55
2023-05-15T15:34:27.707Z,3.50
2023-05-15T15:36:54.524Z,3.67
2023-05-15T15:39:21.490Z,2.85
2023-05-15T15:41:50.939Z,2.72
2023-05-15T15:44:20.982Z,2.35
2023-05-15T15:46:47.679Z,1.83
2023-05-15T15:49:15.333Z,2.08
2023-05-15T15:51:42.801Z,1.63
2023-05-15T15:54:09.408Z,2.30
2023-05-15T15:56:35.916Z,2.50
2023-05-15T15:59:03.604Z,2.03
2023-05-15T16:01:30.172Z,1.85
2023-05-15T16:03:56.800Z,2.13
2023-05-15T16:06:23.670Z,2.17
2023-05-15T16:08:51.819Z,2.15
2023-05-15T16:11:18.423Z,1.90
2023-05-15T16:13:45.218Z,2.25
2023-05-15T16:16:12.152Z,2.25
2023-05-15T16:18:39.621Z,2.05
2023-05-15T16:21:07.687Z,2.10
2023-05-15T16:23:38.259Z,2.40
2023-05-15T16:26:05.583Z,2.03
2023-05-15T16:28:32.726Z,2.53
2023-05-15T16:31:00.301Z,2.33
2023-05-15T16:33:27.174Z,2.50
2023-05-15T16:35:54.045Z,2.00
2023-05-15T16:38:21.080Z,1.85
2023-05-15T16:40:49.003Z,1.58
2023-05-15T16:43:16.911Z,2.33
2023-05-15T16:45:44.778Z,1.40
2023-05-15T16:48:11.683Z,1.53
2023-05-15T16:50:38.363Z,1.02
2023-05-15T16:53:05.737Z,1.55
2023-05-15T16:55:32.797Z,1.50
2023-05-15T16:57:59.307Z,1.88
2023-05-15T17:00:26.271Z,1.27
2023-05-15T17:02:53.157Z,0.90
2023-05-15T17:05:19.703Z,0.75
2023-05-15T17:07:46.282Z,0.70
2023-05-15T17:10:13.741Z,0.43
2023-05-15T17:12:40.553Z,0.33
2023-05-15T17:15:08.752Z,0.52
2023-05-15T17:17:35.503Z,0.35
2023-05-15T17:20:03.870Z,0.50
2023-05-15T17:22:30.751Z,0.25
2023-05-15T17:24:58.250Z,0.30
2023-05-15T17:27:30.196Z,0.40
2023-05-15T17:29:56.981Z,0.40
2023-05-15T17:32:23.777Z,0.40
2023-05-15T17:34:51.523Z,0.30
2023-05-15T17:37:18.684Z,0.37
2023-05-15T17:39:45.222Z,0.30
2023-05-15T17:42:12.150Z,0.35
2023-05-15T17:44:38.791Z,0.68
2023-05-15T17:47:05.506Z,0.35
2023-05-15T17:49:34.186Z,0.53
2023-05-15T17:52:00.812Z,0.60
2023-05-15T17:54:29.631Z,0.50
2023-05-15T17:56:56.188Z,0.60
2023-05-15T17:59:23.217Z,1.10
2023-05-15T18:01:50.198Z,0.70
2023-05-15T18:04:19.780Z,0.70
2023-05-15T18:06:46.364Z,0.65
2023-05-15T18:09:12.850Z,1.35
2023-05-15T18:11:39.562Z,1.02
2023-05-15T18:14:11.383Z,0.90
2023-05-15T18:16:39.801Z,0.90
2023-05-15T18:19:08.521Z,0.70
2023-05-15T18:21:37.652Z,0.60
2023-05-15T18:24:04.961Z,1.50
2023-05-15T18:26:31.948Z,0.70
2023-05-15T18:28:59.802Z,0.55
2023-05-15T18:31:26.844Z,0.50
2023-05-15T18:33:53.725Z,0.98
2023-05-15T18:36:20.486Z,0.82
2023-05-15T18:38:47.073Z,0.50
2023-05-15T18:41:13.877Z,0.95
2023-05-15T18:43:40.497Z,0.38
2023-05-15T18:46:06.989Z,0.63
2023-05-15T18:48:33.549Z,0.38
2023-05-15T18:51:00.134Z,0.30
2023-05-15T18:53:26.811Z,0.40
2023-05-15T18:55:53.597Z,0.68
2023-05-15T18:58:22.975Z,0.40
2023-05-15T19:00:51.127Z,0.63
2023-05-15T19:03:20.800Z,0.40
2023-05-15T19:05:47.846Z,0.50
2023-05-15T19:08:17.026Z,0.40
2023-05-15T19:10:51.058Z,0.20
2023-05-15T19:13:17.671Z,0.30
2023-05-15T19:15:54.094Z,0.20
2023-05-15T19:18:21.060Z,0.20
2023-05-15T19:20:56.386Z,0.30
2023-05-15T19:23:24.789Z,1.15
2023-05-15T19:25:51.675Z,0.20
2023-05-15T19:28:21.296Z,0.17
2023-05-15T19:30:48.173Z,0.10
2023-05-15T19:33:18.918Z,0.10
2023-05-15T19:35:45.868Z,0.20
2023-05-15T19:38:12.685Z,0.20
2023-05-15T19:40:42.897Z,0.27
2023-05-15T19:43:11.357Z,0.57
2023-05-15T19:45:41.133Z,0.10
2023-05-15T19:48:08.036Z,0.20
2023-05-15T19:50:34.714Z,0.10
2023-05-15T19:53:02.924Z,0.20
2023-05-15T19:55:29.656Z,0.10
2023-05-15T19:57:57.238Z,0.35
2023-05-15T20:00:24.567Z,0.10
2023-05-15T20:02:52.437Z,0.20
2023-05-15T20:05:19.566Z,0.23
2023-05-15T20:07:46.850Z,0.30
2023-05-15T20:10:15.177Z,0.45
2023-05-15T20:12:41.980Z,0.30
2023-05-15T20:15:09.176Z,0.38
2023-05-15T20:17:36.422Z,0.20
2023-05-15T20:20:05.622Z,0.20
2023-05-15T20:22:32.460Z,0.20
2023-05-15T20:24:59.012Z,0.10
2023-05-15T20:27:25.989Z,0.10
2023-05-15T20:29:53.245Z,1.40
2023-05-15T20:32:19.879Z,0.10
2023-05-15T20:34:47.871Z,0.20
2023-05-15T20:37:15.000Z,0.20
2023-05-15T20:39:43.700Z,0.35
2023-05-15T20:42:11.604Z,0.30
2023-05-15T20:44:39.663Z,0.30
2023-05-15T20:47:07.424Z,0.40
2023-05-15T20:49:34.124Z,0.32
2023-05-15T20:52:00.815Z,0.32
2023-05-15T20:54:27.518Z,0.20
2023-05-15T20:56:55.177Z,0.20
2023-05-15T20:59:22.248Z,0.32
2023-05-15T21:01:51.198Z,0.20
2023-05-15T21:04:18.819Z,0.20
2023-05-15T21:06:45.770Z,0.57
2023-05-15T21:09:17.124Z,0.30
2023-05-15T21:11:46.808Z,0.85
2023-05-15T21:14:14.258Z,0.95
2023-05-15T21:16:44.596Z,0.93
2023-05-15T21:19:14.571Z,0.57
2023-05-15T21:21:41.242Z,0.20
2023-05-15T21:24:07.845Z,0.63
2023-05-15T21:26:35.298Z,0.25
2023-05-15T21:29:02.606Z,0.35
2023-05-15T21:31:29.220Z,0.47
2023-05-15T21:33:55.981Z,0.85
2023-05-15T21:36:23.139Z,0.40
2023-05-15T21:38:50.322Z,0.43
2023-05-15T21:41:17.286Z,0.47
2023-05-15T21:43:44.533Z,0.30
2023-05-15T21:46:11.078Z,0.32
2023-05-15T21:48:37.984Z,0.65
2023-05-15T21:51:05.877Z,0.35
2023-05-15T21:53:33.682Z,0.50
2023-05-15T21:56:01.225Z,0.40
2023-05-15T21:58:28.765Z,0.65
2023-05-15T22:00:55.390Z,0.77
2023-05-15T22:03:23.324Z,0.40
2023-05-15T22:05:52.969Z,0.50
2023-05-15T22:08:20.117Z,0.67
2023-05-15T22:10:48.896Z,0.60
2023-05-15T22:13:15.552Z,0.52
2023-05-15T22:15:42.510Z,0.50
2023-05-15T22:18:09.426Z,0.52
2023-05-15T22:20:36.487Z,0.57
2023-05-15T22:23:02.978Z,0.50
2023-05-15T22:25:29.429Z,0.90
2023-05-15T22:27:56.031Z,0.50
2023-05-15T22:30:22.904Z,0.65
2023-05-15T22:32:51.414Z,0.40
2023-05-15T22:35:21.615Z,0.30
2023-05-15T22:37:49.468Z,0.50
2023-05-15T22:40:16.308Z,0.45
2023-05-15T22:42:42.872Z,0.32
2023-05-15T22:45:09.893Z,0.63
2023-05-15T22:47:37.815Z,0.30
2023-05-15T22:50:05.819Z,1.65
2023-05-15T22:52:32.805Z,0.43
2023-05-15T22:54:59.509Z,0.77
2023-05-15T22:57:26.876Z,0.67
2023-05-15T22:59:53.368Z,0.98
2023-05-15T23:02:21.804Z,0.40
2023-05-15T23:04:50.907Z,0.40
2023-05-15T23:07:26.842Z,0.50
2023-05-15T23:09:53.282Z,0.70
2023-05-15T23:12:19.867Z,0.40
2023-05-15T23:14:46.332Z,0.75
2023-05-15T23:17:12.927Z,0.85
2023-05-15T23:19:39.445Z,0.65
2023-05-15T23:22:06.098Z,0.40
2023-05-15T23:24:32.616Z,0.65
2023-05-15T23:26:59.188Z,0.63
2023-05-15T23:29:25.810Z,0.82
2023-05-15T23:31:53.473Z,0.80
2023-05-15T23:34:21.126Z,0.83
2023-05-15T23:36:47.577Z,0.30
2023-05-15T23:39:16.479Z,0.40
2023-05-15T23:41:43.111Z,0.52
2023-05-15T23:44:09.699Z,0.43
2023-05-15T23:46:37.976Z,0.30
2023-05-15T23:49:04.610Z,0.50
2023-05-15T23:51:31.523Z,0.30
2023-05-15T23:53:58.041Z,0.45
2023-05-15T23:56:25.681Z,0.90
2023-05-15T23:58:52.189Z,0.77
